sensor_id;sensor_type;location;lat;lon;timestamp;P1;durP1;ratioP1;P2;durP2;ratioP2
4182;SDS011;2105;52.300;9.182;2023-02-03T00:01:59;48.43;;;32.77;;
4182;SDS011;2105;52.300;9.182;2023-02-03T00:04:26;48.03;;;33.40;;
4182;SDS011;2105;52.300;9.182;2023-02-03T00:06:53;46.67;;;32.00;;
4182;SDS011;2105;52.300;9.182;2023-02-03T00:09:21;52.57;;;32.43;;
4182;SDS011;2105;52.300;9.182;2023-02-03T00:11:48;45.53;;;31.40;;
4182;SDS011;2105;52.300;9.182;2023-02-03T00:14:14;41.00;;;30.67;;
4182;SDS011;2105;52.300;9.182;2023-02-03T00:16:41;45.37;;;30.93;;
4182;SDS011;2105;52.300;9.182;2023-02-03T00:19:08;45.30;;;30.57;;
4182;SDS011;2105;52.300;9.182;2023-02-03T00:21:34;44.20;;;31.03;;
4182;SDS011;2105;52.300;9.182;2023-02-03T00:24:01;43.20;;;29.60;;
4182;SDS011;2105;52.300;9.182;2023-02-03T00:26:29;46.20;;;29.13;;
4182;SDS011;2105;52.300;9.182;2023-02-03T00:28:57;49.43;;;30.00;;
4182;SDS011;2105;52.300;9.182;2023-02-03T00:31:24;42.37;;;29.13;;
4182;SDS011;2105;52.300;9.182;2023-02-03T00:33:54;45.83;;;30.17;;
4182;SDS011;2105;52.300;9.182;2023-02-03T00:36:22;40.33;;;27.27;;
4182;SDS011;2105;52.300;9.182;2023-02-03T00:38:49;41.60;;;29.33;;
4182;SDS011;2105;52.300;9.182;2023-02-03T00:41:16;43.83;;;28.00;;
4182;SDS011;2105;52.300;9.182;2023-02-03T00:43:44;39.10;;;28.43;;
4182;SDS011;2105;52.300;9.182;2023-02-03T00:46:11;36.47;;;28.20;;
4182;SDS011;2105;52.300;9.182;2023-02-03T00:48:38;44.73;;;28.33;;
4182;SDS011;2105;52.300;9.182;2023-02-03T00:51:04;45.73;;;28.47;;
4182;SDS011;2105;52.300;9.182;2023-02-03T00:53:31;41.70;;;27.93;;
4182;SDS011;2105;52.300;9.182;2023-02-03T00:55:58;41.47;;;29.27;;
4182;SDS011;2105;52.300;9.182;2023-02-03T00:58:25;35.97;;;28.30;;
4182;SDS011;2105;52.300;9.182;2023-02-03T01:00:54;44.20;;;27.23;;
4182;SDS011;2105;52.300;9.182;2023-02-03T01:03:21;44.60;;;27.30;;
4182;SDS011;2105;52.300;9.182;2023-02-03T01:05:48;35.37;;;26.40;;
4182;SDS011;2105;52.300;9.182;2023-02-03T01:08:14;33.03;;;25.20;;
4182;SDS011;2105;52.300;9.182;2023-02-03T01:10:41;43.07;;;25.27;;
4182;SDS011;2105;52.300;9.182;2023-02-03T01:13:08;35.07;;;26.87;;
4182;SDS011;2105;52.300;9.182;2023-02-03T01:15:34;32.63;;;24.50;;
4182;SDS011;2105;52.300;9.182;2023-02-03T01:18:02;34.53;;;25.40;;
4182;SDS011;2105;52.300;9.182;2023-02-03T01:20:29;36.20;;;26.37;;
4182;SDS011;2105;52.300;9.182;2023-02-03T01:22:56;38.47;;;25.80;;
4182;SDS011;2105;52.300;9.182;2023-02-03T01:25:22;30.50;;;25.07;;
4182;SDS011;2105;52.300;9.182;2023-02-03T01:27:49;33.63;;;23.80;;
4182;SDS011;2105;52.300;9.182;2023-02-03T01:30:16;35.57;;;24.57;;
4182;SDS011;2105;52.300;9.182;2023-02-03T01:32:43;34.23;;;24.70;;
4182;SDS011;2105;52.300;9.182;2023-02-03T01:35:11;32.77;;;23.40;;
4182;SDS011;2105;52.300;9.182;2023-02-03T01:37:37;39.03;;;24.57;;
4182;SDS011;2105;52.300;9.182;2023-02-03T01:40:04;31.90;;;23.87;;
4182;SDS011;2105;52.300;9.182;2023-02-03T01:42:32;38.93;;;24.70;;
4182;SDS011;2105;52.300;9.182;2023-02-03T01:44:59;36.13;;;24.47;;
4182;SDS011;2105;52.300;9.182;2023-02-03T01:47:27;32.37;;;22.97;;
4182;SDS011;2105;52.300;9.182;2023-02-03T01:49:58;31.27;;;22.93;;
4182;SDS011;2105;52.300;9.182;2023-02-03T01:52:33;40.23;;;24.80;;
4182;SDS011;2105;52.300;9.182;2023-02-03T01:55:01;28.57;;;22.70;;
4182;SDS011;2105;52.300;9.182;2023-02-03T01:57:31;45.33;;;23.40;;
4182;SDS011;2105;52.300;9.182;2023-02-03T02:00:01;33.60;;;22.60;;
4182;SDS011;2105;52.300;9.182;2023-02-03T02:02:30;34.53;;;24.33;;
4182;SDS011;2105;52.300;9.182;2023-02-03T02:05:00;29.60;;;22.67;;
4182;SDS011;2105;52.300;9.182;2023-02-03T02:07:29;28.87;;;21.13;;
4182;SDS011;2105;52.300;9.182;2023-02-03T02:09:59;33.73;;;22.90;;
4182;SDS011;2105;52.300;9.182;2023-02-03T02:12:26;27.20;;;21.60;;
4182;SDS011;2105;52.300;9.182;2023-02-03T02:14:53;28.97;;;20.70;;
4182;SDS011;2105;52.300;9.182;2023-02-03T02:17:25;32.47;;;20.47;;
4182;SDS011;2105;52.300;9.182;2023-02-03T02:20:10;30.70;;;20.77;;
4182;SDS011;2105;52.300;9.182;2023-02-03T02:23:18;31.20;;;19.00;;
4182;SDS011;2105;52.300;9.182;2023-02-03T02:26:13;23.50;;;18.87;;
4182;SDS011;2105;52.300;9.182;2023-02-03T02:28:56;24.53;;;19.10;;
4182;SDS011;2105;52.300;9.182;2023-02-03T02:31:52;32.10;;;18.23;;
4182;SDS011;2105;52.300;9.182;2023-02-03T02:34:28;26.27;;;19.00;;
4182;SDS011;2105;52.300;9.182;2023-02-03T02:37:06;25.67;;;19.20;;
4182;SDS011;2105;52.300;9.182;2023-02-03T02:39:42;26.63;;;19.03;;
4182;SDS011;2105;52.300;9.182;2023-02-03T02:42:13;24.90;;;20.73;;
4182;SDS011;2105;52.300;9.182;2023-02-03T02:44:44;21.80;;;19.43;;
4182;SDS011;2105;52.300;9.182;2023-02-03T02:47:18;27.37;;;20.07;;
4182;SDS011;2105;52.300;9.182;2023-02-03T02:49:47;24.57;;;19.70;;
4182;SDS011;2105;52.300;9.182;2023-02-03T02:52:21;33.23;;;19.70;;
4182;SDS011;2105;52.300;9.182;2023-02-03T02:54:51;25.07;;;18.53;;
4182;SDS011;2105;52.300;9.182;2023-02-03T02:57:21;23.93;;;18.87;;
4182;SDS011;2105;52.300;9.182;2023-02-03T02:59:51;23.03;;;18.90;;
4182;SDS011;2105;52.300;9.182;2023-02-03T03:02:20;25.87;;;18.63;;
4182;SDS011;2105;52.300;9.182;2023-02-03T03:04:47;23.27;;;17.53;;
4182;SDS011;2105;52.300;9.182;2023-02-03T03:07:17;29.70;;;18.27;;
4182;SDS011;2105;52.300;9.182;2023-02-03T03:09:47;23.37;;;17.90;;
4182;SDS011;2105;52.300;9.182;2023-02-03T03:12:17;26.67;;;18.47;;
4182;SDS011;2105;52.300;9.182;2023-02-03T03:14:48;24.07;;;17.93;;
4182;SDS011;2105;52.300;9.182;2023-02-03T03:17:19;26.40;;;17.20;;
4182;SDS011;2105;52.300;9.182;2023-02-03T03:19:51;23.33;;;17.70;;
4182;SDS011;2105;52.300;9.182;2023-02-03T03:22:21;23.70;;;18.27;;
4182;SDS011;2105;52.300;9.182;2023-02-03T03:24:51;23.13;;;17.57;;
4182;SDS011;2105;52.300;9.182;2023-02-03T03:27:24;27.90;;;17.50;;
4182;SDS011;2105;52.300;9.182;2023-02-03T03:29:55;28.53;;;18.07;;
4182;SDS011;2105;52.300;9.182;2023-02-03T03:32:25;24.00;;;17.13;;
4182;SDS011;2105;52.300;9.182;2023-02-03T03:34:52;22.23;;;17.90;;
4182;SDS011;2105;52.300;9.182;2023-02-03T03:37:22;26.03;;;19.03;;
4182;SDS011;2105;52.300;9.182;2023-02-03T03:39:55;26.77;;;17.80;;
4182;SDS011;2105;52.300;9.182;2023-02-03T03:42:24;23.80;;;17.70;;
4182;SDS011;2105;52.300;9.182;2023-02-03T03:44:56;22.43;;;17.97;;
4182;SDS011;2105;52.300;9.182;2023-02-03T03:47:27;24.70;;;17.10;;
4182;SDS011;2105;52.300;9.182;2023-02-03T03:49:59;21.73;;;18.10;;
4182;SDS011;2105;52.300;9.182;2023-02-03T03:52:29;22.97;;;17.77;;
4182;SDS011;2105;52.300;9.182;2023-02-03T03:54:58;21.27;;;17.03;;
4182;SDS011;2105;52.300;9.182;2023-02-03T03:57:28;30.40;;;18.17;;
4182;SDS011;2105;52.300;9.182;2023-02-03T03:59:59;28.33;;;18.00;;
4182;SDS011;2105;52.300;9.182;2023-02-03T04:02:29;27.37;;;18.37;;
4182;SDS011;2105;52.300;9.182;2023-02-03T04:04:58;20.50;;;16.90;;
4182;SDS011;2105;52.300;9.182;2023-02-03T04:07:36;28.37;;;17.40;;
4182;SDS011;2105;52.300;9.182;2023-02-03T04:10:04;22.40;;;17.10;;
4182;SDS011;2105;52.300;9.182;2023-02-03T04:12:36;23.90;;;18.60;;
4182;SDS011;2105;52.300;9.182;2023-02-03T04:15:03;29.80;;;17.60;;
4182;SDS011;2105;52.300;9.182;2023-02-03T04:17:31;22.53;;;16.57;;
4182;SDS011;2105;52.300;9.182;2023-02-03T04:20:00;20.27;;;15.47;;
4182;SDS011;2105;52.300;9.182;2023-02-03T04:22:26;25.20;;;16.60;;
4182;SDS011;2105;52.300;9.182;2023-02-03T04:24:53;28.77;;;16.27;;
4182;SDS011;2105;52.300;9.182;2023-02-03T04:27:22;20.37;;;15.97;;
4182;SDS011;2105;52.300;9.182;2023-02-03T04:29:49;23.87;;;15.53;;
4182;SDS011;2105;52.300;9.182;2023-02-03T04:32:16;24.17;;;16.03;;
4182;SDS011;2105;52.300;9.182;2023-02-03T04:34:44;17.67;;;15.73;;
4182;SDS011;2105;52.300;9.182;2023-02-03T04:37:11;21.10;;;15.00;;
4182;SDS011;2105;52.300;9.182;2023-02-03T04:39:38;21.60;;;15.10;;
4182;SDS011;2105;52.300;9.182;2023-02-03T04:42:05;30.70;;;16.20;;
4182;SDS011;2105;52.300;9.182;2023-02-03T04:44:31;19.00;;;15.47;;
4182;SDS011;2105;52.300;9.182;2023-02-03T04:46:58;26.10;;;15.50;;
4182;SDS011;2105;52.300;9.182;2023-02-03T04:49:25;21.00;;;14.73;;
4182;SDS011;2105;52.300;9.182;2023-02-03T04:51:53;27.73;;;17.03;;
4182;SDS011;2105;52.300;9.182;2023-02-03T04:54:19;17.93;;;14.87;;
4182;SDS011;2105;52.300;9.182;2023-02-03T04:56:46;23.60;;;15.23;;
4182;SDS011;2105;52.300;9.182;2023-02-03T04:59:13;21.93;;;15.67;;
4182;SDS011;2105;52.300;9.182;2023-02-03T05:01:39;22.27;;;14.40;;
4182;SDS011;2105;52.300;9.182;2023-02-03T05:04:06;20.30;;;14.57;;
4182;SDS011;2105;52.300;9.182;2023-02-03T05:06:33;21.03;;;14.90;;
4182;SDS011;2105;52.300;9.182;2023-02-03T05:09:01;16.97;;;15.27;;
4182;SDS011;2105;52.300;9.182;2023-02-03T05:11:28;21.60;;;15.10;;
4182;SDS011;2105;52.300;9.182;2023-02-03T05:13:55;15.80;;;13.80;;
4182;SDS011;2105;52.300;9.182;2023-02-03T05:16:22;27.23;;;15.13;;
4182;SDS011;2105;52.300;9.182;2023-02-03T05:18:49;20.80;;;14.20;;
4182;SDS011;2105;52.300;9.182;2023-02-03T05:21:16;20.10;;;15.30;;
4182;SDS011;2105;52.300;9.182;2023-02-03T05:23:43;19.07;;;14.57;;
4182;SDS011;2105;52.300;9.182;2023-02-03T05:26:11;23.40;;;15.00;;
4182;SDS011;2105;52.300;9.182;2023-02-03T05:28:38;16.23;;;13.70;;
4182;SDS011;2105;52.300;9.182;2023-02-03T05:31:04;22.77;;;13.70;;
4182;SDS011;2105;52.300;9.182;2023-02-03T05:33:31;21.50;;;13.63;;
4182;SDS011;2105;52.300;9.182;2023-02-03T05:35:58;18.20;;;13.80;;
4182;SDS011;2105;52.300;9.182;2023-02-03T05:38:24;18.93;;;13.80;;
4182;SDS011;2105;52.300;9.182;2023-02-03T05:40:51;18.77;;;13.90;;
4182;SDS011;2105;52.300;9.182;2023-02-03T05:43:37;18.10;;;13.50;;
4182;SDS011;2105;52.300;9.182;2023-02-03T05:46:04;21.83;;;13.40;;
4182;SDS011;2105;52.300;9.182;2023-02-03T05:48:32;18.60;;;13.70;;
4182;SDS011;2105;52.300;9.182;2023-02-03T05:50:59;17.97;;;13.27;;
4182;SDS011;2105;52.300;9.182;2023-02-03T05:53:26;14.27;;;12.87;;
4182;SDS011;2105;52.300;9.182;2023-02-03T05:55:53;21.03;;;13.00;;
4182;SDS011;2105;52.300;9.182;2023-02-03T05:58:19;26.23;;;13.90;;
4182;SDS011;2105;52.300;9.182;2023-02-03T06:00:47;19.30;;;14.10;;
4182;SDS011;2105;52.300;9.182;2023-02-03T06:03:14;13.73;;;12.27;;
4182;SDS011;2105;52.300;9.182;2023-02-03T06:05:41;13.50;;;12.10;;
4182;SDS011;2105;52.300;9.182;2023-02-03T06:08:08;17.00;;;11.80;;
4182;SDS011;2105;52.300;9.182;2023-02-03T06:10:35;18.20;;;12.20;;
4182;SDS011;2105;52.300;9.182;2023-02-03T06:13:06;22.40;;;12.93;;
4182;SDS011;2105;52.300;9.182;2023-02-03T06:15:34;22.70;;;12.50;;
4182;SDS011;2105;52.300;9.182;2023-02-03T06:18:03;16.80;;;11.17;;
4182;SDS011;2105;52.300;9.182;2023-02-03T06:20:29;24.03;;;12.30;;
4182;SDS011;2105;52.300;9.182;2023-02-03T06:22:56;24.90;;;12.40;;
4182;SDS011;2105;52.300;9.182;2023-02-03T06:25:23;21.20;;;11.27;;
4182;SDS011;2105;52.300;9.182;2023-02-03T06:27:50;20.40;;;10.90;;
4182;SDS011;2105;52.300;9.182;2023-02-03T06:30:17;17.60;;;10.80;;
4182;SDS011;2105;52.300;9.182;2023-02-03T06:32:44;16.60;;;11.30;;
4182;SDS011;2105;52.300;9.182;2023-02-03T06:35:12;17.40;;;11.03;;
4182;SDS011;2105;52.300;9.182;2023-02-03T06:37:39;18.30;;;10.23;;
4182;SDS011;2105;52.300;9.182;2023-02-03T06:40:06;20.27;;;10.93;;
4182;SDS011;2105;52.300;9.182;2023-02-03T06:42:33;12.60;;;10.43;;
4182;SDS011;2105;52.300;9.182;2023-02-03T06:44:59;15.20;;;10.20;;
4182;SDS011;2105;52.300;9.182;2023-02-03T06:47:26;21.40;;;11.10;;
4182;SDS011;2105;52.300;9.182;2023-02-03T06:49:53;19.03;;;9.87;;
4182;SDS011;2105;52.300;9.182;2023-02-03T06:52:21;16.10;;;10.70;;
4182;SDS011;2105;52.300;9.182;2023-02-03T06:54:48;21.10;;;10.77;;
4182;SDS011;2105;52.300;9.182;2023-02-03T06:57:14;16.40;;;10.40;;
4182;SDS011;2105;52.300;9.182;2023-02-03T06:59:41;14.63;;;10.67;;
4182;SDS011;2105;52.300;9.182;2023-02-03T07:02:08;14.73;;;10.67;;
4182;SDS011;2105;52.300;9.182;2023-02-03T07:04:36;17.53;;;11.53;;
4182;SDS011;2105;52.300;9.182;2023-02-03T07:07:03;17.47;;;11.10;;
4182;SDS011;2105;52.300;9.182;2023-02-03T07:09:31;16.43;;;11.63;;
4182;SDS011;2105;52.300;9.182;2023-02-03T07:11:58;20.70;;;13.50;;
4182;SDS011;2105;52.300;9.182;2023-02-03T07:14:25;25.60;;;12.50;;
4182;SDS011;2105;52.300;9.182;2023-02-03T07:16:51;20.97;;;13.17;;
4182;SDS011;2105;52.300;9.182;2023-02-03T07:19:18;18.73;;;12.97;;
4182;SDS011;2105;52.300;9.182;2023-02-03T07:21:45;20.57;;;12.87;;
4182;SDS011;2105;52.300;9.182;2023-02-03T07:24:12;20.73;;;13.67;;
4182;SDS011;2105;52.300;9.182;2023-02-03T07:26:40;22.90;;;12.83;;
4182;SDS011;2105;52.300;9.182;2023-02-03T07:29:07;19.83;;;13.20;;
4182;SDS011;2105;52.300;9.182;2023-02-03T07:31:33;17.97;;;14.03;;
4182;SDS011;2105;52.300;9.182;2023-02-03T07:34:00;22.73;;;13.97;;
4182;SDS011;2105;52.300;9.182;2023-02-03T07:36:27;22.23;;;13.67;;
4182;SDS011;2105;52.300;9.182;2023-02-03T07:38:54;18.63;;;13.10;;
4182;SDS011;2105;52.300;9.182;2023-02-03T07:41:21;20.67;;;13.30;;
4182;SDS011;2105;52.300;9.182;2023-02-03T07:43:49;16.53;;;12.40;;
4182;SDS011;2105;52.300;9.182;2023-02-03T07:46:15;18.90;;;13.00;;
4182;SDS011;2105;52.300;9.182;2023-02-03T07:48:42;20.63;;;13.33;;
4182;SDS011;2105;52.300;9.182;2023-02-03T07:51:09;22.73;;;13.23;;
4182;SDS011;2105;52.300;9.182;2023-02-03T07:53:35;18.40;;;13.40;;
4182;SDS011;2105;52.300;9.182;2023-02-03T07:56:03;17.57;;;13.60;;
4182;SDS011;2105;52.300;9.182;2023-02-03T07:58:30;20.40;;;14.30;;
4182;SDS011;2105;52.300;9.182;2023-02-03T08:00:59;25.53;;;14.73;;
4182;SDS011;2105;52.300;9.182;2023-02-03T08:03:25;21.27;;;13.80;;
4182;SDS011;2105;52.300;9.182;2023-02-03T08:05:52;30.77;;;14.10;;
4182;SDS011;2105;52.300;9.182;2023-02-03T08:08:19;17.70;;;13.03;;
4182;SDS011;2105;52.300;9.182;2023-02-03T08:10:45;24.37;;;14.67;;
4182;SDS011;2105;52.300;9.182;2023-02-03T08:13:12;21.33;;;14.50;;
4182;SDS011;2105;52.300;9.182;2023-02-03T08:15:39;18.27;;;13.63;;
4182;SDS011;2105;52.300;9.182;2023-02-03T08:18:07;18.00;;;13.07;;
4182;SDS011;2105;52.300;9.182;2023-02-03T08:20:33;25.33;;;13.30;;
4182;SDS011;2105;52.300;9.182;2023-02-03T08:23:00;20.80;;;14.07;;
4182;SDS011;2105;52.300;9.182;2023-02-03T08:25:27;20.60;;;12.23;;
4182;SDS011;2105;52.300;9.182;2023-02-03T08:27:53;17.70;;;12.17;;
4182;SDS011;2105;52.300;9.182;2023-02-03T08:30:20;18.73;;;12.53;;
4182;SDS011;2105;52.300;9.182;2023-02-03T08:32:47;18.63;;;11.70;;
4182;SDS011;2105;52.300;9.182;2023-02-03T08:35:16;16.77;;;11.53;;
4182;SDS011;2105;52.300;9.182;2023-02-03T08:37:43;20.90;;;12.10;;
4182;SDS011;2105;52.300;9.182;2023-02-03T08:40:10;24.17;;;12.87;;
4182;SDS011;2105;52.300;9.182;2023-02-03T08:42:37;17.27;;;12.33;;
4182;SDS011;2105;52.300;9.182;2023-02-03T08:45:04;18.23;;;12.50;;
4182;SDS011;2105;52.300;9.182;2023-02-03T08:47:32;21.57;;;11.03;;
4182;SDS011;2105;52.300;9.182;2023-02-03T08:50:00;18.10;;;12.40;;
4182;SDS011;2105;52.300;9.182;2023-02-03T08:52:29;16.77;;;11.60;;
4182;SDS011;2105;52.300;9.182;2023-02-03T08:54:55;19.90;;;11.57;;
4182;SDS011;2105;52.300;9.182;2023-02-03T08:57:22;24.50;;;12.60;;
4182;SDS011;2105;52.300;9.182;2023-02-03T08:59:49;18.60;;;11.00;;
4182;SDS011;2105;52.300;9.182;2023-02-03T09:02:17;21.33;;;12.03;;
4182;SDS011;2105;52.300;9.182;2023-02-03T09:04:45;22.33;;;10.50;;
4182;SDS011;2105;52.300;9.182;2023-02-03T09:07:13;13.80;;;10.30;;
4182;SDS011;2105;52.300;9.182;2023-02-03T09:09:42;15.80;;;10.17;;
4182;SDS011;2105;52.300;9.182;2023-02-03T09:12:08;15.87;;;10.50;;
4182;SDS011;2105;52.300;9.182;2023-02-03T09:14:37;19.10;;;9.50;;
4182;SDS011;2105;52.300;9.182;2023-02-03T09:17:04;15.33;;;10.43;;
4182;SDS011;2105;52.300;9.182;2023-02-03T09:19:32;21.23;;;10.77;;
4182;SDS011;2105;52.300;9.182;2023-02-03T09:21:58;18.67;;;10.00;;
4182;SDS011;2105;52.300;9.182;2023-02-03T09:24:26;34.03;;;9.87;;
4182;SDS011;2105;52.300;9.182;2023-02-03T09:26:54;16.80;;;9.47;;
4182;SDS011;2105;52.300;9.182;2023-02-03T09:29:21;14.57;;;8.10;;
4182;SDS011;2105;52.300;9.182;2023-02-03T09:31:48;17.93;;;9.30;;
4182;SDS011;2105;52.300;9.182;2023-02-03T09:34:17;18.57;;;8.70;;
4182;SDS011;2105;52.300;9.182;2023-02-03T09:36:44;17.33;;;8.20;;
4182;SDS011;2105;52.300;9.182;2023-02-03T09:39:11;13.13;;;7.57;;
4182;SDS011;2105;52.300;9.182;2023-02-03T09:41:55;14.93;;;8.00;;
4182;SDS011;2105;52.300;9.182;2023-02-03T09:44:36;11.50;;;7.37;;
4182;SDS011;2105;52.300;9.182;2023-02-03T09:47:11;10.70;;;6.60;;
4182;SDS011;2105;52.300;9.182;2023-02-03T09:49:41;19.50;;;7.33;;
4182;SDS011;2105;52.300;9.182;2023-02-03T09:52:12;17.20;;;7.03;;
4182;SDS011;2105;52.300;9.182;2023-02-03T09:54:43;11.30;;;7.57;;
4182;SDS011;2105;52.300;9.182;2023-02-03T09:57:19;14.63;;;7.00;;
4182;SDS011;2105;52.300;9.182;2023-02-03T09:59:48;9.27;;;6.07;;
4182;SDS011;2105;52.300;9.182;2023-02-03T10:02:20;13.50;;;5.87;;
4182;SDS011;2105;52.300;9.182;2023-02-03T10:05:06;16.40;;;5.63;;
4182;SDS011;2105;52.300;9.182;2023-02-03T10:07:42;8.63;;;5.40;;
4182;SDS011;2105;52.300;9.182;2023-02-03T10:10:20;14.77;;;5.20;;
4182;SDS011;2105;52.300;9.182;2023-02-03T10:12:55;14.80;;;5.33;;
4182;SDS011;2105;52.300;9.182;2023-02-03T10:18:16;14.73;;;5.60;;
4182;SDS011;2105;52.300;9.182;2023-02-03T10:20:47;15.30;;;6.00;;
4182;SDS011;2105;52.300;9.182;2023-02-03T10:23:17;14.93;;;5.40;;
4182;SDS011;2105;52.300;9.182;2023-02-03T10:25:49;11.03;;;5.13;;
4182;SDS011;2105;52.300;9.182;2023-02-03T10:28:22;15.07;;;6.03;;
4182;SDS011;2105;52.300;9.182;2023-02-03T10:30:51;14.53;;;5.43;;
4182;SDS011;2105;52.300;9.182;2023-02-03T10:33:22;18.13;;;4.70;;
4182;SDS011;2105;52.300;9.182;2023-02-03T10:35:51;11.60;;;4.57;;
4182;SDS011;2105;52.300;9.182;2023-02-03T10:38:23;12.80;;;4.60;;
4182;SDS011;2105;52.300;9.182;2023-02-03T10:40:59;7.90;;;4.50;;
4182;SDS011;2105;52.300;9.182;2023-02-03T10:43:28;14.03;;;4.93;;
4182;SDS011;2105;52.300;9.182;2023-02-03T10:46:14;16.33;;;4.90;;
4182;SDS011;2105;52.300;9.182;2023-02-03T10:48:41;13.43;;;4.70;;
4182;SDS011;2105;52.300;9.182;2023-02-03T10:51:10;9.10;;;4.80;;
4182;SDS011;2105;52.300;9.182;2023-02-03T10:53:44;18.03;;;5.50;;
4182;SDS011;2105;52.300;9.182;2023-02-03T10:56:11;11.50;;;5.10;;
4182;SDS011;2105;52.300;9.182;2023-02-03T10:58:46;18.63;;;5.70;;
4182;SDS011;2105;52.300;9.182;2023-02-03T11:01:15;10.53;;;4.80;;
4182;SDS011;2105;52.300;9.182;2023-02-03T11:03:53;14.63;;;5.47;;
4182;SDS011;2105;52.300;9.182;2023-02-03T11:06:23;21.10;;;5.90;;
4182;SDS011;2105;52.300;9.182;2023-02-03T11:08:50;18.97;;;6.07;;
4182;SDS011;2105;52.300;9.182;2023-02-03T11:11:21;14.13;;;5.63;;
4182;SDS011;2105;52.300;9.182;2023-02-03T11:13:55;26.03;;;7.00;;
4182;SDS011;2105;52.300;9.182;2023-02-03T11:16:36;13.53;;;6.30;;
4182;SDS011;2105;52.300;9.182;2023-02-03T11:19:03;16.23;;;6.77;;
4182;SDS011;2105;52.300;9.182;2023-02-03T11:21:39;16.63;;;6.40;;
4182;SDS011;2105;52.300;9.182;2023-02-03T11:24:10;16.27;;;6.60;;
4182;SDS011;2105;52.300;9.182;2023-02-03T11:26:44;19.93;;;7.47;;
4182;SDS011;2105;52.300;9.182;2023-02-03T11:29:17;21.87;;;8.67;;
4182;SDS011;2105;52.300;9.182;2023-02-03T11:31:47;22.20;;;8.17;;
4182;SDS011;2105;52.300;9.182;2023-02-03T11:34:18;24.93;;;8.40;;
4182;SDS011;2105;52.300;9.182;2023-02-03T11:36:48;22.13;;;8.07;;
4182;SDS011;2105;52.300;9.182;2023-02-03T11:39:16;17.17;;;9.10;;
4182;SDS011;2105;52.300;9.182;2023-02-03T11:41:51;24.83;;;9.37;;
4182;SDS011;2105;52.300;9.182;2023-02-03T11:44:20;43.53;;;9.97;;
4182;SDS011;2105;52.300;9.182;2023-02-03T11:46:49;24.57;;;9.57;;
4182;SDS011;2105;52.300;9.182;2023-02-03T11:49:26;35.73;;;10.20;;
4182;SDS011;2105;52.300;9.182;2023-02-03T11:52:17;29.97;;;10.17;;
4182;SDS011;2105;52.300;9.182;2023-02-03T11:54:59;33.60;;;10.07;;
4182;SDS011;2105;52.300;9.182;2023-02-03T11:57:33;25.37;;;9.90;;
4182;SDS011;2105;52.300;9.182;2023-02-03T12:00:13;19.73;;;10.20;;
4182;SDS011;2105;52.300;9.182;2023-02-03T12:02:58;20.87;;;10.13;;
4182;SDS011;2105;52.300;9.182;2023-02-03T12:05:57;23.47;;;10.07;;
4182;SDS011;2105;52.300;9.182;2023-02-03T12:08:37;32.30;;;10.50;;
4182;SDS011;2105;52.300;9.182;2023-02-03T12:11:26;34.30;;;11.37;;
4182;SDS011;2105;52.300;9.182;2023-02-03T12:14:09;36.77;;;11.97;;
4182;SDS011;2105;52.300;9.182;2023-02-03T12:16:59;27.17;;;11.00;;
4182;SDS011;2105;52.300;9.182;2023-02-03T12:19:39;27.73;;;10.73;;
4182;SDS011;2105;52.300;9.182;2023-02-03T12:22:15;31.63;;;11.20;;
4182;SDS011;2105;52.300;9.182;2023-02-03T12:24:52;32.80;;;10.90;;
4182;SDS011;2105;52.300;9.182;2023-02-03T12:27:27;28.63;;;11.40;;
4182;SDS011;2105;52.300;9.182;2023-02-03T12:30:01;31.63;;;11.80;;
4182;SDS011;2105;52.300;9.182;2023-02-03T12:32:35;30.90;;;12.13;;
4182;SDS011;2105;52.300;9.182;2023-02-03T12:35:11;25.73;;;11.30;;
4182;SDS011;2105;52.300;9.182;2023-02-03T12:37:43;22.07;;;11.37;;
4182;SDS011;2105;52.300;9.182;2023-02-03T12:40:15;23.20;;;11.57;;
4182;SDS011;2105;52.300;9.182;2023-02-03T12:42:49;35.00;;;12.67;;
4182;SDS011;2105;52.300;9.182;2023-02-03T12:45:20;29.63;;;12.67;;
4182;SDS011;2105;52.300;9.182;2023-02-03T12:47:53;33.60;;;12.10;;
4182;SDS011;2105;52.300;9.182;2023-02-03T12:50:22;34.10;;;13.30;;
4182;SDS011;2105;52.300;9.182;2023-02-03T12:52:56;30.57;;;13.30;;
4182;SDS011;2105;52.300;9.182;2023-02-03T12:55:30;31.97;;;13.67;;
4182;SDS011;2105;52.300;9.182;2023-02-03T12:58:02;30.73;;;14.67;;
4182;SDS011;2105;52.300;9.182;2023-02-03T13:00:36;37.87;;;15.03;;
4182;SDS011;2105;52.300;9.182;2023-02-03T13:03:12;36.03;;;15.20;;
4182;SDS011;2105;52.300;9.182;2023-02-03T13:05:46;33.80;;;15.53;;
4182;SDS011;2105;52.300;9.182;2023-02-03T13:08:19;35.50;;;15.00;;
4182;SDS011;2105;52.300;9.182;2023-02-03T13:10:51;30.67;;;14.53;;
4182;SDS011;2105;52.300;9.182;2023-02-03T13:13:25;32.13;;;15.90;;
4182;SDS011;2105;52.300;9.182;2023-02-03T13:15:57;32.50;;;16.30;;
4182;SDS011;2105;52.300;9.182;2023-02-03T13:18:30;27.33;;;15.10;;
4182;SDS011;2105;52.300;9.182;2023-02-03T13:20:59;25.57;;;16.37;;
4182;SDS011;2105;52.300;9.182;2023-02-03T13:23:26;35.40;;;16.27;;
4182;SDS011;2105;52.300;9.182;2023-02-03T13:25:56;27.90;;;15.80;;
4182;SDS011;2105;52.300;9.182;2023-02-03T13:28:46;26.67;;;15.40;;
4182;SDS011;2105;52.300;9.182;2023-02-03T13:31:27;30.03;;;16.40;;
4182;SDS011;2105;52.300;9.182;2023-02-03T13:34:10;28.87;;;16.33;;
4182;SDS011;2105;52.300;9.182;2023-02-03T13:36:58;30.60;;;16.90;;
4182;SDS011;2105;52.300;9.182;2023-02-03T13:39:40;29.77;;;16.77;;
4182;SDS011;2105;52.300;9.182;2023-02-03T13:42:20;39.33;;;17.13;;
4182;SDS011;2105;52.300;9.182;2023-02-03T13:44:51;40.70;;;16.63;;
4182;SDS011;2105;52.300;9.182;2023-02-03T13:47:21;36.23;;;17.60;;
4182;SDS011;2105;52.300;9.182;2023-02-03T13:49:54;32.93;;;17.20;;
4182;SDS011;2105;52.300;9.182;2023-02-03T13:52:26;31.70;;;16.80;;
4182;SDS011;2105;52.300;9.182;2023-02-03T13:54:57;40.57;;;17.87;;
4182;SDS011;2105;52.300;9.182;2023-02-03T13:57:27;28.57;;;17.27;;
4182;SDS011;2105;52.300;9.182;2023-02-03T13:59:59;35.20;;;16.80;;
4182;SDS011;2105;52.300;9.182;2023-02-03T14:02:39;33.00;;;17.77;;
4182;SDS011;2105;52.300;9.182;2023-02-03T14:17:07;40.10;;;16.40;;
4182;SDS011;2105;52.300;9.182;2023-02-03T14:20:37;31.00;;;16.47;;
4182;SDS011;2105;52.300;9.182;2023-02-03T14:23:14;40.13;;;16.50;;
4182;SDS011;2105;52.300;9.182;2023-02-03T14:25:48;29.93;;;16.00;;
4182;SDS011;2105;52.300;9.182;2023-02-03T14:28:20;34.10;;;16.60;;
4182;SDS011;2105;52.300;9.182;2023-02-03T14:31:04;30.70;;;15.50;;
4182;SDS011;2105;52.300;9.182;2023-02-03T14:33:50;45.90;;;17.80;;
4182;SDS011;2105;52.300;9.182;2023-02-03T14:36:27;49.97;;;16.80;;
4182;SDS011;2105;52.300;9.182;2023-02-03T14:38:55;36.83;;;17.30;;
4182;SDS011;2105;52.300;9.182;2023-02-03T14:41:27;43.03;;;17.30;;
4182;SDS011;2105;52.300;9.182;2023-02-03T14:44:02;26.17;;;15.57;;
4182;SDS011;2105;52.300;9.182;2023-02-03T14:46:42;33.57;;;16.60;;
4182;SDS011;2105;52.300;9.182;2023-02-03T14:49:25;33.67;;;15.80;;
4182;SDS011;2105;52.300;9.182;2023-02-03T14:52:11;34.87;;;15.90;;
4182;SDS011;2105;52.300;9.182;2023-02-03T14:54:55;34.00;;;16.47;;
4182;SDS011;2105;52.300;9.182;2023-02-03T14:57:37;29.87;;;16.03;;
4182;SDS011;2105;52.300;9.182;2023-02-03T15:00:24;25.83;;;15.87;;
4182;SDS011;2105;52.300;9.182;2023-02-03T15:05:53;27.63;;;17.37;;
4182;SDS011;2105;52.300;9.182;2023-02-03T15:08:40;27.60;;;17.27;;
4182;SDS011;2105;52.300;9.182;2023-02-03T15:11:17;30.00;;;16.70;;
4182;SDS011;2105;52.300;9.182;2023-02-03T15:13:56;29.03;;;16.20;;
4182;SDS011;2105;52.300;9.182;2023-02-03T15:16:38;32.43;;;15.73;;
4182;SDS011;2105;52.300;9.182;2023-02-03T15:19:13;27.37;;;15.83;;
4182;SDS011;2105;52.300;9.182;2023-02-03T15:21:42;34.27;;;15.90;;
4182;SDS011;2105;52.300;9.182;2023-02-03T15:24:12;32.20;;;15.50;;
4182;SDS011;2105;52.300;9.182;2023-02-03T15:26:44;31.73;;;16.10;;
4182;SDS011;2105;52.300;9.182;2023-02-03T15:29:19;25.67;;;15.57;;
4182;SDS011;2105;52.300;9.182;2023-02-03T15:31:57;35.67;;;16.37;;